Time;durP1;ratioP1;P1;durP2;ratioP2;P2;SDS_P1;SDS_P2;PMS_P1;PMS_P2;Temp;Humidity;BMP_temperature;BMP_pressure;BME280_temperature;BME280_humidity;BME280_pressure;Samples;Min_cycle;Max_cycle;Signal;HPM_P1;HPM_P2
2021/01/22 00:00:52;;;;;;;3.75;1.27;;;;;;;;;;5027064;28;20033;-47
2021/01/22 00:03:17;;;;;;;5.75;1.80;;;;;;;;;;5028032;28;20108;-43
2021/01/22 00:05:42;;;;;;;5.50;1.83;;;;;;;;;;5028069;28;20120;-44
2021/01/22 00:08:08;;;;;;;1.45;1.13;;;;;;;;;;5027786;28;20061;-43
2021/01/22 00:10:33;;;;;;;7.28;1.05;;;;;;;;;;5027393;28;20055;-47
2021/01/22 00:12:58;;;;;;;3.05;0.47;;;;;;;;;;5027967;28;20036;-47
2021/01/22 00:15:24;;;;;;;0.30;0.20;;;;;;;;;;5027947;28;20452;-50
2021/01/22 00:17:49;;;;;;;3.83;1.52;;;;;;;;;;5027787;28;20128;-46
2021/01/22 00:20:14;;;;;;;3.10;0.77;;;;;;;;;;5026565;28;20036;-46
2021/01/22 00:22:40;;;;;;;2.13;1.13;;;;;;;;;;5027351;28;20021;-45
2021/01/22 00:25:05;;;;;;;1.88;0.50;;;;;;;;;;5027533;28;20529;-40
2021/01/22 00:27:31;;;;;;;3.47;1.88;;;;;;;;;;5027784;28;20033;-46
2021/01/22 00:29:56;;;;;;;3.10;1.48;;;;;;;;;;5027490;28;20029;-43
2021/01/22 00:32:21;;;;;;;3.42;1.15;;;;;;;;;;5027458;28;20071;-48
2021/01/22 00:34:47;;;;;;;8.68;1.30;;;;;;;;;;5027000;28;20606;-44
2021/01/22 00:37:12;;;;;;;1.08;0.65;;;;;;;;;;5027517;28;20084;-45
2021/01/22 00:39:38;;;;;;;2.25;0.60;;;;;;;;;;5027207;28;20439;-43
2021/01/22 00:42:03;;;;;;;0.40;0.25;;;;;;;;;;5027373;28;20029;-43
2021/01/22 00:44:28;;;;;;;7.15;0.95;;;;;;;;;;5026998;28;20033;-44
2021/01/22 00:46:54;;;;;;;0.93;0.63;;;;;;;;;;5026948;28;20128;-43
2021/01/22 00:49:19;;;;;;;3.90;1.52;;;;;;;;;;5027509;28;20045;-46
2021/01/22 00:51:44;;;;;;;0.30;0.17;;;;;;;;;;5027023;28;20045;-45
2021/01/22 00:54:10;;;;;;;4.13;0.45;;;;;;;;;;5027532;28;20021;-48
2021/01/22 00:56:35;;;;;;;0.30;0.30;;;;;;;;;;5027150;28;20450;-46
2021/01/22 00:59:00;;;;;;;3.13;1.17;;;;;;;;;;5027060;28;20169;-48
2021/01/22 01:01:25;;;;;;;1.83;0.80;;;;;;;;;;5027058;28;20037;-46
2021/01/22 01:03:51;;;;;;;2.05;0.60;;;;;;;;;;5025852;28;20472;-43
2021/01/22 01:06:16;;;;;;;0.80;0.25;;;;;;;;;;5027278;28;20369;-45
2021/01/22 01:08:41;;;;;;;0.63;0.40;;;;;;;;;;5027634;28;20707;-44
2021/01/22 01:11:07;;;;;;;0.50;0.30;;;;;;;;;;5027077;28;20110;-44
2021/01/22 01:13:32;;;;;;;7.38;1.17;;;;;;;;;;5026818;28;20076;-45
2021/01/22 01:15:57;;;;;;;1.45;0.70;;;;;;;;;;5026829;28;20045;-47
2021/01/22 01:18:23;;;;;;;1.20;0.32;;;;;;;;;;5027167;28;20030;-45
2021/01/22 01:20:48;;;;;;;0.68;0.22;;;;;;;;;;5027118;28;20416;-47
2021/01/22 01:23:14;;;;;;;1.52;0.55;;;;;;;;;;5026705;28;20242;-48
2021/01/22 01:25:43;;;;;;;1.48;0.45;;;;;;;;;;5026412;28;20033;-44
2021/01/22 01:28:08;;;;;;;1.13;0.32;;;;;;;;;;5026626;28;20182;-46
2021/01/22 01:30:34;;;;;;;0.95;0.50;;;;;;;;;;5026181;28;20471;-46
2021/01/22 01:32:59;;;;;;;1.08;0.40;;;;;;;;;;5026279;28;20021;-46
2021/01/22 01:35:25;;;;;;;1.25;0.75;;;;;;;;;;5026811;28;20049;-43
2021/01/22 01:37:50;;;;;;;0.32;0.15;;;;;;;;;;5026783;28;20052;-45
2021/01/22 01:40:15;;;;;;;0.98;0.75;;;;;;;;;;5026500;28;20033;-45
2021/01/22 01:42:41;;;;;;;0.10;0.10;;;;;;;;;;5026588;28;20057;-43
2021/01/22 01:45:07;;;;;;;0.10;0.10;;;;;;;;;;5025987;28;20515;-45
2021/01/22 01:47:32;;;;;;;6.55;0.55;;;;;;;;;;5026358;28;20092;-43
2021/01/22 01:49:57;;;;;;;0.73;0.43;;;;;;;;;;5026190;28;20835;-45
2021/01/22 01:52:22;;;;;;;2.47;0.82;;;;;;;;;;5026568;28;20098;-47
2021/01/22 01:54:48;;;;;;;0.43;0.35;;;;;;;;;;5026522;28;20033;-45
2021/01/22 01:57:14;;;;;;;3.05;0.90;;;;;;;;;;5026206;28;20030;-43
2021/01/22 01:59:40;;;;;;;1.08;0.40;;;;;;;;;;5026320;28;20104;-42
2021/01/22 02:02:11;;;;;;;0.30;0.10;;;;;;;;;;5026842;28;20753;-44
2021/01/22 02:04:37;;;;;;;1.85;0.77;;;;;;;;;;5026486;28;20537;-43
2021/01/22 02:07:08;;;;;;;2.03;1.08;;;;;;;;;;5026640;28;20025;-44
2021/01/22 02:09:36;;;;;;;3.97;0.52;;;;;;;;;;5026635;28;20057;-43
2021/01/22 02:12:01;;;;;;;3.40;0.68;;;;;;;;;;5026368;28;20033;-46
2021/01/22 02:14:29;;;;;;;4.82;0.98;;;;;;;;;;5026404;28;20042;-44
2021/01/22 02:16:54;;;;;;;3.22;0.77;;;;;;;;;;5025759;28;20396;-42
2021/01/22 02:19:33;;;;;;;2.53;0.63;;;;;;;;;;5026519;28;20127;-43
2021/01/22 02:22:06;;;;;;;2.83;0.73;;;;;;;;;;5024594;28;20029;-48
2021/01/22 02:24:34;;;;;;;1.67;0.52;;;;;;;;;;5025174;28;20044;-46
2021/01/22 02:27:04;;;;;;;4.53;0.88;;;;;;;;;;5026158;28;20033;-46
2021/01/22 02:29:30;;;;;;;1.52;0.22;;;;;;;;;;5025555;28;20036;-45
2021/01/22 02:32:00;;;;;;;2.50;0.40;;;;;;;;;;5008566;28;20048;-46
2021/01/22 02:34:26;;;;;;;2.80;0.57;;;;;;;;;;5025235;28;20402;-42
2021/01/22 02:36:55;;;;;;;0.65;0.20;;;;;;;;;;5025966;28;20475;-44
2021/01/22 02:39:23;;;;;;;0.47;0.20;;;;;;;;;;5026140;28;20030;-43
2021/01/22 02:41:49;;;;;;;3.05;0.47;;;;;;;;;;5026632;28;20034;-48
2021/01/22 02:44:27;;;;;;;0.90;0.30;;;;;;;;;;5026103;28;20487;-44
2021/01/22 02:46:52;;;;;;;1.45;0.45;;;;;;;;;;5025129;28;20045;-43
2021/01/22 02:49:24;;;;;;;0.20;0.10;;;;;;;;;;5025775;28;20031;-44
2021/01/22 02:51:49;;;;;;;;;;;;;;;;;;5026967;28;20068;-43
2021/01/22 02:54:14;;;;;;;4.23;0.53;;;;;;;;;;5025951;28;19979;-44
2021/01/22 02:56:54;;;;;;;1.92;0.22;;;;;;;;;;5025822;28;20045;-45
2021/01/22 02:59:40;;;;;;;0.57;0.25;;;;;;;;;;5027343;28;20819;-43
2021/01/22 03:02:26;;;;;;;0.32;0.22;;;;;;;;;;5029649;28;20113;-44
2021/01/22 03:04:52;;;;;;;0.20;0.20;;;;;;;;;;5029491;28;20033;-45
2021/01/22 03:07:33;;;;;;;2.45;0.73;;;;;;;;;;5029424;28;20095;-41
2021/01/22 03:10:18;;;;;;;1.90;0.28;;;;;;;;;;5031260;28;20069;-42
2021/01/22 03:12:50;;;;;;;0.68;0.40;;;;;;;;;;5028297;28;20083;-46
2021/01/22 03:15:19;;;;;;;4.38;1.17;;;;;;;;;;5029274;28;20048;-43
2021/01/22 03:18:08;;;;;;;1.00;0.63;;;;;;;;;;5029493;28;20079;-42
2021/01/22 03:20:33;;;;;;;0.00;0.00;;;;;;;;;;5028935;28;20036;-44
2021/01/22 03:22:59;;;;;;;0.40;0.22;;;;;;;;;;5029216;28;20018;-44
2021/01/22 03:25:24;;;;;;;1.65;0.20;;;;;;;;;;5029279;28;20463;-44
2021/01/22 03:27:59;;;;;;;0.00;0.00;;;;;;;;;;5028694;28;20028;-47
2021/01/22 03:30:45;;;;;;;1.77;0.65;;;;;;;;;;5028671;28;20036;-47
2021/01/22 03:33:21;;;;;;;1.85;0.70;;;;;;;;;;5028724;28;20033;-44
2021/01/22 03:35:52;;;;;;;1.65;0.63;;;;;;;;;;5027460;28;20056;-48
2021/01/22 03:38:20;;;;;;;1.67;0.20;;;;;;;;;;5028313;28;20105;-46
2021/01/22 03:40:45;;;;;;;0.35;0.32;;;;;;;;;;5028437;28;20396;-48
2021/01/22 03:43:10;;;;;;;3.20;0.50;;;;;;;;;;5028460;28;20112;-46
2021/01/22 03:45:36;;;;;;;1.42;0.25;;;;;;;;;;5028076;28;20084;-42
2021/01/22 03:48:18;;;;;;;3.30;0.98;;;;;;;;;;5028782;28;20032;-45
2021/01/22 03:50:44;;;;;;;2.10;0.35;;;;;;;;;;5027966;28;20033;-45
2021/01/22 03:53:10;;;;;;;0.65;0.30;;;;;;;;;;5028579;28;20030;-43
2021/01/22 03:55:41;;;;;;;0.20;0.10;;;;;;;;;;5026183;28;20045;-43
2021/01/22 03:58:06;;;;;;;2.70;0.32;;;;;;;;;;5028270;28;20116;-42
2021/01/22 04:00:34;;;;;;;0.45;0.38;;;;;;;;;;5028093;28;20041;-45
2021/01/22 04:02:59;;;;;;;0.10;0.10;;;;;;;;;;5028663;28;20049;-48
2021/01/22 04:05:25;;;;;;;1.75;0.40;;;;;;;;;;5027644;28;20084;-45
2021/01/22 04:07:51;;;;;;;0.65;0.10;;;;;;;;;;5027737;28;20103;-44
2021/01/22 04:10:16;;;;;;;1.02;0.50;;;;;;;;;;5027712;28;20140;-44
2021/01/22 04:12:41;;;;;;;0.43;0.30;;;;;;;;;;5027984;28;20430;-43
2021/01/22 04:15:07;;;;;;;0.90;0.22;;;;;;;;;;5027152;28;20631;-44
2021/01/22 04:17:33;;;;;;;0.38;0.20;;;;;;;;;;5028008;28;20025;-43
2021/01/22 04:19:58;;;;;;;3.25;1.13;;;;;;;;;;5009933;28;20022;-44
2021/01/22 04:22:24;;;;;;;0.10;0.10;;;;;;;;;;5027164;28;20095;-44
2021/01/22 04:24:49;;;;;;;2.72;0.63;;;;;;;;;;5027696;28;20026;-49
2021/01/22 04:27:14;;;;;;;1.75;0.40;;;;;;;;;;5027114;28;20485;-43
2021/01/22 04:29:40;;;;;;;5.15;0.40;;;;;;;;;;5027615;28;20036;-42
2021/01/22 04:32:07;;;;;;;5.75;1.38;;;;;;;;;;5026926;28;20515;-44
2021/01/22 04:34:32;;;;;;;4.72;1.33;;;;;;;;;;5027235;28;20029;-44
2021/01/22 04:36:57;;;;;;;10.75;0.95;;;;;;;;;;5026653;28;20455;-49
2021/01/22 04:39:22;;;;;;;6.55;2.05;;;;;;;;;;5026552;28;20029;-42
2021/01/22 04:41:48;;;;;;;2.78;1.02;;;;;;;;;;5027323;28;20033;-45
2021/01/22 04:44:13;;;;;;;4.95;0.88;;;;;;;;;;5027216;28;20032;-41
2021/01/22 04:46:40;;;;;;;0.75;0.68;;;;;;;;;;5026879;28;20486;-41
2021/01/22 04:49:05;;;;;;;5.28;0.65;;;;;;;;;;5026742;28;20335;-46
2021/01/22 04:51:33;;;;;;;0.30;0.20;;;;;;;;;;5027322;28;20482;-47
2021/01/22 04:54:02;;;;;;;3.47;1.15;;;;;;;;;;5027333;28;20025;-42
2021/01/22 04:56:29;;;;;;;1.75;0.90;;;;;;;;;;5025863;28;20045;-48
2021/01/22 04:58:56;;;;;;;1.77;1.15;;;;;;;;;;5026917;28;20152;-44
2021/01/22 05:01:22;;;;;;;3.28;1.40;;;;;;;;;;5027231;28;20152;-44
2021/01/22 05:03:47;;;;;;;3.08;1.45;;;;;;;;;;5027029;28;20026;-44
2021/01/22 05:06:14;;;;;;;4.75;1.73;;;;;;;;;;5026807;28;20036;-47
2021/01/22 05:08:39;;;;;;;1.65;0.65;;;;;;;;;;5026723;28;20075;-43
2021/01/22 05:11:04;;;;;;;0.90;0.43;;;;;;;;;;5026962;28;20463;-45
2021/01/22 05:13:29;;;;;;;1.05;0.57;;;;;;;;;;5026870;28;20052;-42
2021/01/22 05:16:13;;;;;;;0.77;0.47;;;;;;;;;;5026907;28;20818;-43
2021/01/22 05:18:39;;;;;;;2.67;1.10;;;;;;;;;;5026358;28;20040;-43
2021/01/22 05:21:05;;;;;;;1.17;0.63;;;;;;;;;;5025470;28;20033;-44
2021/01/22 05:23:34;;;;;;;3.67;0.40;;;;;;;;;;5008921;28;20534;-43
2021/01/22 05:26:01;;;;;;;5.00;1.60;;;;;;;;;;5026939;28;20029;-43
2021/01/22 05:28:45;;;;;;;4.15;1.60;;;;;;;;;;5025772;28;20086;-44
2021/01/22 05:31:12;;;;;;;0.82;0.63;;;;;;;;;;5026571;28;20739;-43
2021/01/22 05:33:38;;;;;;;2.63;1.08;;;;;;;;;;5026334;28;20108;-41
2021/01/22 05:36:23;;;;;;;4.30;0.70;;;;;;;;;;5025795;28;20045;-43
2021/01/22 05:38:50;;;;;;;1.08;0.43;;;;;;;;;;5013903;28;20111;-48
2021/01/22 05:41:15;;;;;;;8.55;2.15;;;;;;;;;;5024107;28;20087;-43
2021/01/22 05:43:41;;;;;;;4.63;1.42;;;;;;;;;;5025403;28;20025;-42
2021/01/22 05:46:13;;;;;;;11.57;3.58;;;;;;;;;;5026069;28;20081;-42
2021/01/22 05:48:38;;;;;;;7.40;1.17;;;;;;;;;;5026169;28;20026;-41
2021/01/22 05:51:04;;;;;;;2.88;0.70;;;;;;;;;;5026011;28;20137;-49
2021/01/22 05:53:29;;;;;;;2.00;0.80;;;;;;;;;;5025950;28;20025;-41
2021/01/22 05:56:05;;;;;;;2.67;1.42;;;;;;;;;;5025661;28;20045;-43
2021/01/22 05:58:30;;;;;;;7.55;1.15;;;;;;;;;;5026087;28;20026;-43
2021/01/22 06:01:02;;;;;;;8.75;2.83;;;;;;;;;;5025987;28;20356;-43
2021/01/22 06:03:28;;;;;;;6.93;1.70;;;;;;;;;;5026435;28;20112;-44
2021/01/22 06:05:53;;;;;;;0.75;0.70;;;;;;;;;;5026105;28;20108;-42
2021/01/22 06:08:19;;;;;;;3.53;1.25;;;;;;;;;;5026090;28;20480;-46
2021/01/22 06:10:45;;;;;;;2.08;0.95;;;;;;;;;;5025954;28;20136;-41
2021/01/22 06:13:12;;;;;;;3.22;0.77;;;;;;;;;;5025655;28;20398;-42
2021/01/22 06:15:38;;;;;;;3.97;1.30;;;;;;;;;;5025940;28;20041;-43
2021/01/22 06:18:03;;;;;;;5.53;1.15;;;;;;;;;;5026117;28;20021;-45
2021/01/22 06:20:29;;;;;;;3.90;1.23;;;;;;;;;;5025875;28;20076;-45
2021/01/22 06:22:55;;;;;;;2.42;0.77;;;;;;;;;;5026037;28;20041;-42
2021/01/22 06:25:20;;;;;;;3.00;1.00;;;;;;;;;;5025616;28;21115;-42
2021/01/22 06:27:46;;;;;;;3.03;0.65;;;;;;;;;;5024747;28;20122;-46
2021/01/22 06:30:12;;;;;;;8.23;1.50;;;;;;;;;;5024824;28;20488;-44
2021/01/22 06:32:40;;;;;;;4.10;1.00;;;;;;;;;;5024131;28;20033;-44
2021/01/22 06:35:06;;;;;;;5.57;1.23;;;;;;;;;;5028283;28;20037;-42
2021/01/22 06:37:32;;;;;;;8.57;1.13;;;;;;;;;;5028740;28;20434;-46
2021/01/22 06:40:00;;;;;;;2.33;1.05;;;;;;;;;;5028088;28;20026;-42
2021/01/22 06:42:25;;;;;;;7.40;2.83;;;;;;;;;;5028647;28;20033;-42
2021/01/22 06:44:50;;;;;;;7.38;1.25;;;;;;;;;;5026747;28;20049;-47
2021/01/22 06:47:16;;;;;;;3.75;0.93;;;;;;;;;;5028558;28;20108;-44
2021/01/22 06:49:41;;;;;;;2.85;1.52;;;;;;;;;;5028317;28;20030;-48
2021/01/22 06:52:10;;;;;;;2.58;1.65;;;;;;;;;;5028680;28;20432;-40
2021/01/22 06:54:55;;;;;;;2.97;1.30;;;;;;;;;;5026277;28;20025;-45
2021/01/22 06:57:21;;;;;;;4.45;1.85;;;;;;;;;;5027624;28;20872;-45
2021/01/22 06:59:46;;;;;;;10.32;3.00;;;;;;;;;;5028484;28;20060;-45
2021/01/22 07:02:30;;;;;;;4.82;2.33;;;;;;;;;;5028681;28;20029;-42
2021/01/22 07:04:55;;;;;;;11.02;2.88;;;;;;;;;;5028614;28;20029;-48
2021/01/22 07:07:40;;;;;;;10.25;2.35;;;;;;;;;;5028038;28;20033;-45
2021/01/22 07:10:06;;;;;;;9.63;2.38;;;;;;;;;;5026664;28;20029;-42
2021/01/22 07:12:34;;;;;;;10.23;3.85;;;;;;;;;;5027909;28;20025;-47
2021/01/22 07:14:59;;;;;;;14.52;3.67;;;;;;;;;;5027327;28;20116;-50
2021/01/22 07:17:27;;;;;;;12.27;2.75;;;;;;;;;;5027390;28;20112;-43
2021/01/22 07:19:59;;;;;;;3.60;2.20;;;;;;;;;;5028141;28;20048;-44
2021/01/22 07:22:26;;;;;;;4.47;1.77;;;;;;;;;;5027980;28;20396;-46
2021/01/22 07:24:53;;;;;;;6.07;1.75;;;;;;;;;;5027609;28;20087;-42
2021/01/22 07:27:18;;;;;;;13.57;3.25;;;;;;;;;;5028097;28;20116;-48
2021/01/22 07:30:03;;;;;;;11.85;3.65;;;;;;;;;;5028040;28;20105;-42
2021/01/22 07:32:28;;;;;;;13.13;2.42;;;;;;;;;;5026650;28;20730;-43
2021/01/22 07:34:54;;;;;;;6.07;4.43;;;;;;;;;;5027796;28;20113;-43
2021/01/22 07:37:20;;;;;;;23.17;3.97;;;;;;;;;;5027829;28;20678;-42
2021/01/22 07:39:49;;;;;;;8.70;2.63;;;;;;;;;;5027353;28;20037;-46
2021/01/22 07:42:26;;;;;;;6.85;1.88;;;;;;;;;;5008840;28;20031;-40
2021/01/22 07:44:52;;;;;;;9.32;1.98;;;;;;;;;;5027286;28;20045;-41
2021/01/22 07:47:27;;;;;;;11.48;4.28;;;;;;;;;;5027526;28;20037;-40
2021/01/22 07:49:57;;;;;;;13.05;3.40;;;;;;;;;;5023832;28;20045;-43
2021/01/22 07:52:22;;;;;;;22.98;3.88;;;;;;;;;;5027118;28;20029;-44
2021/01/22 07:54:48;;;;;;;12.95;2.85;;;;;;;;;;5030968;28;20021;-44
2021/01/22 07:57:23;;;;;;;5.15;3.00;;;;;;;;;;5027429;28;20396;-43
2021/01/22 07:59:49;;;;;;;4.35;2.15;;;;;;;;;;5029377;28;20104;-44
2021/01/22 08:02:15;;;;;;;9.13;3.33;;;;;;;;;;5029083;28;20116;-44
2021/01/22 08:04:41;;;;;;;19.30;4.82;;;;;;;;;;5008592;28;20029;-46
2021/01/22 08:07:06;;;;;;;5.22;2.42;;;;;;;;;;5031614;28;20037;-47
2021/01/22 08:09:32;;;;;;;13.88;2.85;;;;;;;;;;5029105;28;20047;-44
2021/01/22 08:12:07;;;;;;;13.90;2.47;;;;;;;;;;5031303;28;20063;-41
2021/01/22 08:14:33;;;;;;;10.35;4.25;;;;;;;;;;5026743;28;20028;-44
2021/01/22 08:16:58;;;;;;;14.02;3.92;;;;;;;;;;5027344;28;20049;-46
2021/01/22 08:19:27;;;;;;;3.45;2.45;;;;;;;;;;5026872;28;20017;-54
2021/01/22 08:21:53;;;;;;;14.57;4.20;;;;;;;;;;5026254;28;20037;-59
2021/01/22 08:24:19;;;;;;;6.43;3.10;;;;;;;;;;5026556;28;20033;-60
2021/01/22 08:26:44;;;;;;;11.32;4.80;;;;;;;;;;5030720;28;20040;-54
2021/01/22 08:29:10;;;;;;;17.15;5.32;;;;;;;;;;5033602;28;20086;-62
2021/01/22 08:31:37;;;;;;;13.25;3.50;;;;;;;;;;5017809;28;20034;-55
2021/01/22 08:34:03;;;;;;;17.48;4.85;;;;;;;;;;5034373;28;20017;-58
2021/01/22 08:36:29;;;;;;;10.45;5.28;;;;;;;;;;5028348;28;20053;-55
2021/01/22 08:38:55;;;;;;;12.50;4.22;;;;;;;;;;5029204;28;20386;-57
2021/01/22 08:41:27;;;;;;;18.38;5.38;;;;;;;;;;5030110;28;20032;-56
2021/01/22 08:43:53;;;;;;;10.35;4.55;;;;;;;;;;5030117;28;20049;-57
2021/01/22 08:46:19;;;;;;;9.18;3.10;;;;;;;;;;5028529;28;20092;-62
2021/01/22 08:48:45;;;;;;;11.45;3.67;;;;;;;;;;5032102;28;20083;-56
2021/01/22 08:51:10;;;;;;;6.03;3.03;;;;;;;;;;5027715;28;20037;-61
2021/01/22 08:53:48;;;;;;;8.32;3.22;;;;;;;;;;5025535;28;20083;-60
2021/01/22 08:56:14;;;;;;;6.80;2.45;;;;;;;;;;5026362;28;20091;-61
2021/01/22 08:58:58;;;;;;;18.05;4.47;;;;;;;;;;5027006;28;20037;-62
2021/01/22 09:01:42;;;;;;;9.82;2.75;;;;;;;;;;5026611;28;20092;-57
2021/01/22 09:04:22;;;;;;;6.15;2.22;;;;;;;;;;5026402;28;20719;-62
2021/01/22 09:06:53;;;;;;;9.73;3.13;;;;;;;;;;5026986;28;20112;-62
2021/01/22 09:09:18;;;;;;;;;;;;;;;;;;5026226;28;20064;-63
2021/01/22 09:11:43;;;;;;;13.93;4.78;;;;;;;;;;5025858;28;19959;-57
2021/01/22 09:14:10;;;;;;;6.13;2.63;;;;;;;;;;5026690;28;20029;-57
2021/01/22 09:16:45;;;;;;;15.63;3.92;;;;;;;;;;5023841;28;20053;-55
2021/01/22 09:19:11;;;;;;;9.60;3.03;;;;;;;;;;5026428;28;20056;-60
2021/01/22 09:21:52;;;;;;;8.15;1.90;;;;;;;;;;5028543;28;20056;-62
2021/01/22 09:24:18;;;;;;;8.00;2.15;;;;;;;;;;5025875;28;20472;-61
2021/01/22 09:26:43;;;;;;;8.25;3.03;;;;;;;;;;5029266;28;20032;-58
2021/01/22 09:29:08;;;;;;;15.55;3.42;;;;;;;;;;5028025;28;20059;-58
2021/01/22 09:31:34;;;;;;;17.75;5.93;;;;;;;;;;5025947;28;20129;-62
2021/01/22 09:33:59;;;;;;;10.63;4.82;;;;;;;;;;5025467;28;20029;-63
2021/01/22 09:36:24;;;;;;;18.73;6.80;;;;;;;;;;5021088;28;20116;-60
2021/01/22 09:38:50;;;;;;;16.67;4.82;;;;;;;;;;5026174;28;20041;-63
2021/01/22 09:41:17;;;;;;;16.10;2.90;;;;;;;;;;5010386;28;20391;-61
2021/01/22 09:43:42;;;;;;;7.25;4.28;;;;;;;;;;5028282;28;20018;-58
2021/01/22 09:46:10;;;;;;;24.13;7.50;;;;;;;;;;5027964;28;20492;-59
2021/01/22 09:48:36;;;;;;;11.02;4.63;;;;;;;;;;5028764;28;20430;-61
2021/01/22 09:51:01;;;;;;;12.77;3.17;;;;;;;;;;5028748;28;20030;-66
2021/01/22 09:53:26;;;;;;;12.63;3.50;;;;;;;;;;5028957;28;20124;-55
2021/01/22 09:55:52;;;;;;;9.77;5.28;;;;;;;;;;5029331;28;20506;-61
2021/01/22 09:58:17;;;;;;;13.52;5.32;;;;;;;;;;5011680;28;20018;-60
2021/01/22 10:00:42;;;;;;;8.43;4.50;;;;;;;;;;5030374;28;20025;-55
2021/01/22 10:03:10;;;;;;;18.23;9.90;;;;;;;;;;5031287;28;20048;-55
2021/01/22 10:05:39;;;;;;;15.02;7.55;;;;;;;;;;5030720;28;20469;-55
2021/01/22 10:08:05;;;;;;;10.35;4.97;;;;;;;;;;5031517;28;20034;-55
2021/01/22 10:10:30;;;;;;;18.77;6.40;;;;;;;;;;5038231;28;20052;-62
2021/01/22 10:12:55;;;;;;;18.98;3.67;;;;;;;;;;5034471;28;20017;-58
2021/01/22 10:15:21;;;;;;;10.55;5.32;;;;;;;;;;5033984;28;20634;-61
2021/01/22 10:17:46;;;;;;;21.40;9.45;;;;;;;;;;5038742;28;20028;-63
2021/01/22 10:20:11;;;;;;;8.50;2.55;;;;;;;;;;5033270;28;20022;-57
2021/01/22 10:22:37;;;;;;;6.38;1.15;;;;;;;;;;5033809;28;20026;-55
2021/01/22 10:25:02;;;;;;;3.05;0.65;;;;;;;;;;5033028;28;20083;-59
2021/01/22 10:27:27;;;;;;;0.47;0.30;;;;;;;;;;5036628;28;20057;-54
2021/01/22 10:29:53;;;;;;;1.48;0.50;;;;;;;;;;5034508;28;20047;-54
2021/01/22 10:32:18;;;;;;;2.92;0.95;;;;;;;;;;5036910;28;20032;-61
2021/01/22 10:34:43;;;;;;;17.55;3.00;;;;;;;;;;5034705;28;20110;-60
2021/01/22 10:37:09;;;;;;;9.73;3.05;;;;;;;;;;5035192;28;20439;-56
2021/01/22 10:39:34;;;;;;;24.25;5.57;;;;;;;;;;5034263;28;20032;-57
2021/01/22 10:41:59;;;;;;;11.43;3.30;;;;;;;;;;5034363;28;20033;-56
2021/01/22 10:44:24;;;;;;;7.43;2.35;;;;;;;;;;5014555;28;20498;-57
2021/01/22 10:46:50;;;;;;;10.13;3.17;;;;;;;;;;5033263;28;20035;-61
2021/01/22 10:49:15;;;;;;;17.23;6.57;;;;;;;;;;5032914;28;20120;-56
2021/01/22 10:51:40;;;;;;;11.18;3.72;;;;;;;;;;5033242;28;20041;-59
2021/01/22 10:54:06;;;;;;;7.50;2.70;;;;;;;;;;5034231;28;20032;-56
2021/01/22 10:56:31;;;;;;;24.88;3.83;;;;;;;;;;5032791;28;20099;-59
2021/01/22 10:58:56;;;;;;;12.70;2.08;;;;;;;;;;5032679;28;20028;-54
2021/01/22 11:01:21;;;;;;;20.45;7.15;;;;;;;;;;5032130;28;20029;-51
2021/01/22 11:03:47;;;;;;;9.18;4.10;;;;;;;;;;5032761;28;20036;-58
2021/01/22 11:06:12;;;;;;;19.20;3.75;;;;;;;;;;5032662;28;20068;-49
2021/01/22 11:08:37;;;;;;;23.52;5.78;;;;;;;;;;5033007;28;20021;-56
2021/01/22 11:11:03;;;;;;;11.00;3.47;;;;;;;;;;5032670;28;20061;-54
2021/01/22 11:13:28;;;;;;;7.90;2.38;;;;;;;;;;5027568;28;20080;-60
2021/01/22 11:15:53;;;;;;;8.27;2.80;;;;;;;;;;5033677;28;20052;-53
2021/01/22 11:18:19;;;;;;;10.38;3.10;;;;;;;;;;5028313;28;20026;-56
2021/01/22 11:20:44;;;;;;;9.93;4.25;;;;;;;;;;5025831;28;20037;-57
2021/01/22 11:23:09;;;;;;;9.57;3.75;;;;;;;;;;5028579;28;20083;-52
2021/01/22 11:25:35;;;;;;;13.40;3.72;;;;;;;;;;5028881;28;20037;-56
2021/01/22 11:28:00;;;;;;;6.93;3.70;;;;;;;;;;5025530;28;20021;-60
2021/01/22 11:30:25;;;;;;;20.75;4.45;;;;;;;;;;5028410;28;20951;-55
2021/01/22 11:32:51;;;;;;;15.32;4.10;;;;;;;;;;5030876;28;20021;-55
2021/01/22 11:35:16;;;;;;;17.73;5.00;;;;;;;;;;5028975;28;20056;-57
2021/01/22 11:37:43;;;;;;;11.48;3.70;;;;;;;;;;5028373;28;20028;-56
2021/01/22 11:40:09;;;;;;;11.13;3.38;;;;;;;;;;5028438;28;20025;-52
2021/01/22 11:42:34;;;;;;;16.58;5.60;;;;;;;;;;5028826;28;20100;-57
2021/01/22 11:44:59;;;;;;;7.95;2.72;;;;;;;;;;5011689;28;20407;-54
2021/01/22 11:47:25;;;;;;;19.42;4.63;;;;;;;;;;5030548;28;20132;-56
2021/01/22 11:49:50;;;;;;;15.23;5.78;;;;;;;;;;5031703;28;20025;-56
2021/01/22 11:52:15;;;;;;;8.93;4.13;;;;;;;;;;5030522;28;20038;-58
2021/01/22 11:54:41;;;;;;;22.95;7.00;;;;;;;;;;5012869;28;20460;-56
2021/01/22 11:57:06;;;;;;;14.70;3.70;;;;;;;;;;5015424;28;20722;-57
2021/01/22 11:59:32;;;;;;;10.27;3.83;;;;;;;;;;5008019;28;20480;-56
2021/01/22 12:01:57;;;;;;;5.93;2.90;;;;;;;;;;5027323;28;20916;-54
2021/01/22 12:04:23;;;;;;;16.02;6.05;;;;;;;;;;5008039;28;20049;-54
2021/01/22 12:06:48;;;;;;;31.38;4.72;;;;;;;;;;5026621;28;20037;-57
2021/01/22 12:09:13;;;;;;;32.40;6.70;;;;;;;;;;5007703;28;20021;-54
2021/01/22 12:11:39;;;;;;;18.02;5.68;;;;;;;;;;5021623;28;20057;-58
2021/01/22 12:14:04;;;;;;;9.20;3.33;;;;;;;;;;5029305;28;20014;-55
2021/01/22 12:16:29;;;;;;;6.93;3.85;;;;;;;;;;5028725;28;20049;-56
2021/01/22 12:18:54;;;;;;;15.13;3.13;;;;;;;;;;5030048;28;20367;-55
2021/01/22 12:21:20;;;;;;;10.02;4.88;;;;;;;;;;5025685;28;20483;-58
2021/01/22 12:23:45;;;;;;;14.50;3.63;;;;;;;;;;5027536;28;20017;-57
2021/01/22 12:26:11;;;;;;;15.85;2.50;;;;;;;;;;5028466;28;20029;-58
2021/01/22 12:28:37;;;;;;;9.90;4.25;;;;;;;;;;5029358;28;21421;-53
2021/01/22 12:31:03;;;;;;;28.58;7.60;;;;;;;;;;5024892;28;20029;-58
2021/01/22 12:33:28;;;;;;;13.95;4.03;;;;;;;;;;5025835;28;20045;-53
2021/01/22 12:35:53;;;;;;;15.40;4.40;;;;;;;;;;5026510;28;20120;-54
2021/01/22 12:38:19;;;;;;;5.78;2.50;;;;;;;;;;5010284;28;20035;-55
2021/01/22 12:40:44;;;;;;;15.25;4.97;;;;;;;;;;5024521;28;20103;-55
2021/01/22 12:43:09;;;;;;;27.60;4.43;;;;;;;;;;5023523;28;20029;-52
2021/01/22 12:45:35;;;;;;;10.10;3.95;;;;;;;;;;5024468;28;20486;-53
2021/01/22 12:48:00;;;;;;;8.55;2.78;;;;;;;;;;5028652;28;20454;-56
2021/01/22 12:50:26;;;;;;;13.38;4.93;;;;;;;;;;5024387;28;20043;-52
2021/01/22 12:52:51;;;;;;;12.40;6.50;;;;;;;;;;5024600;28;20026;-54
2021/01/22 12:55:17;;;;;;;10.57;3.60;;;;;;;;;;5024096;28;20053;-56
2021/01/22 12:57:42;;;;;;;9.52;3.63;;;;;;;;;;5024362;28;20025;-57
2021/01/22 13:00:08;;;;;;;26.63;7.43;;;;;;;;;;5024654;28;20033;-54
2021/01/22 13:02:34;;;;;;;17.08;4.88;;;;;;;;;;5024189;28;20070;-54
2021/01/22 13:04:59;;;;;;;10.65;4.05;;;;;;;;;;5023393;28;20162;-56
2021/01/22 13:07:25;;;;;;;7.97;3.80;;;;;;;;;;5023479;28;20022;-54
2021/01/22 13:09:50;;;;;;;16.08;6.10;;;;;;;;;;5023612;28;20025;-53
2021/01/22 13:12:15;;;;;;;10.35;2.90;;;;;;;;;;5021766;28;20046;-57
2021/01/22 13:14:41;;;;;;;17.65;3.63;;;;;;;;;;5027267;28;20139;-54
2021/01/22 13:17:06;;;;;;;11.48;6.40;;;;;;;;;;5029341;28;20037;-56
2021/01/22 13:19:32;;;;;;;7.20;2.85;;;;;;;;;;5028717;28;20485;-53
2021/01/22 13:21:58;;;;;;;6.95;2.97;;;;;;;;;;5028302;28;20463;-52
2021/01/22 13:24:24;;;;;;;11.98;4.47;;;;;;;;;;5028668;28;20025;-53
2021/01/22 13:26:49;;;;;;;7.60;4.78;;;;;;;;;;5026724;28;20032;-56
2021/01/22 13:29:14;;;;;;;11.80;4.38;;;;;;;;;;5023748;28;20380;-55
2021/01/22 13:31:39;;;;;;;7.85;3.08;;;;;;;;;;5024906;28;20120;-55
2021/01/22 13:34:05;;;;;;;11.43;4.18;;;;;;;;;;5025186;28;20025;-53
2021/01/22 13:36:30;;;;;;;17.80;4.57;;;;;;;;;;5023318;28;20079;-56
2021/01/22 13:38:56;;;;;;;18.08;3.42;;;;;;;;;;5024000;28;20033;-55
2021/01/22 13:41:21;;;;;;;10.32;3.67;;;;;;;;;;5022225;28;20039;-54
2021/01/22 13:43:46;;;;;;;14.38;3.92;;;;;;;;;;5026644;28;20468;-55
2021/01/22 13:46:12;;;;;;;7.13;2.90;;;;;;;;;;5026707;28;20148;-57
2021/01/22 13:48:37;;;;;;;11.63;6.15;;;;;;;;;;5025351;28;20025;-55
2021/01/22 13:51:04;;;;;;;21.58;8.98;;;;;;;;;;5023392;28;20652;-58
2021/01/22 13:53:29;;;;;;;10.05;2.70;;;;;;;;;;5023072;28;20729;-54
2021/01/22 13:55:55;;;;;;;8.35;4.53;;;;;;;;;;5005618;28;20053;-56
2021/01/22 13:58:20;;;;;;;16.27;4.15;;;;;;;;;;5022865;28;20107;-54
2021/01/22 14:00:46;;;;;;;13.30;3.55;;;;;;;;;;5023469;28;20069;-57
2021/01/22 14:03:11;;;;;;;15.23;3.30;;;;;;;;;;5023307;28;20117;-57
2021/01/22 14:05:36;;;;;;;9.95;4.05;;;;;;;;;;5023237;28;20616;-58
2021/01/22 14:08:01;;;;;;;11.05;3.75;;;;;;;;;;5023156;28;20033;-59
2021/01/22 14:10:27;;;;;;;25.23;5.60;;;;;;;;;;5023633;28;20038;-54
2021/01/22 14:12:54;;;;;;;17.25;4.30;;;;;;;;;;5023154;28;20079;-57
2021/01/22 14:15:19;;;;;;;23.08;7.20;;;;;;;;;;5022727;28;20497;-58
2021/01/22 14:17:45;;;;;;;12.23;4.38;;;;;;;;;;5023710;28;20021;-55
2021/01/22 14:20:10;;;;;;;7.30;4.00;;;;;;;;;;5025091;28;20942;-56
2021/01/22 14:22:35;;;;;;;10.02;2.22;;;;;;;;;;5023451;28;20067;-52
2021/01/22 14:25:01;;;;;;;26.73;7.35;;;;;;;;;;5023137;28;20476;-55
2021/01/22 14:27:26;;;;;;;16.25;4.03;;;;;;;;;;5022805;28;20040;-54
2021/01/22 14:29:51;;;;;;;20.25;5.50;;;;;;;;;;5023116;28;20034;-55
2021/01/22 14:32:17;;;;;;;10.40;6.43;;;;;;;;;;5022818;28;20133;-54
2021/01/22 14:34:42;;;;;;;13.73;6.47;;;;;;;;;;5024104;28;20071;-54
2021/01/22 14:37:07;;;;;;;16.70;3.72;;;;;;;;;;5027784;28;20452;-53